Walla Walla, Washington
Current Conditions -  °F | °C
As of 7:53 AM on Friday 28 Nov 2014 (Local Time) from KALW Reporting Station
Overcast Overcast  
Wind Chill: 59°   Ceiling: 6000
Heat Index: 59°   Visibility: 10mi
Dew Point: 42°   Wind: 15mph
Humidity: 53%   Direction: 190°S
Pressure: 29.61"   Gusts: NA
Location:  46.07°N, 118.34°W
Report Text: KALW 281553Z 19013KT 10SM OVC060 15/06 A2961 RMK AO2 SLP025 T01500056
Loading
Personal Weather Stations






























Interactive Weather Map New forecast layout! Learn more

10-Day Weather Forecast

Advertisements
Track Severe Weather on mobile